Time;durP1;ratioP1;P1;durP2;ratioP2;P2;SDS_P1;SDS_P2;PMS_P1;PMS_P2;Temp;Humidity;BMP_temperature;BMP_pressure;BME280_temperature;BME280_humidity;BME280_pressure;Samples;Min_cycle;Max_cycle;Signal;HPM_P1;HPM_P2
2022/10/11 00:02:01;;;;;;;11.88;3.22;;;;;;;;;;5016757;28;20033;-59
2022/10/11 00:04:27;;;;;;;10.90;3.13;;;;;;;;;;5010777;28;20572;-59
2022/10/11 00:06:53;;;;;;;13.98;2.60;;;9.00;99.90;;;;;;5014751;28;20128;-58
2022/10/11 00:09:19;;;;;;;12.90;2.53;;;9.00;99.90;;;;;;5013975;28;20439;-59
2022/10/11 00:11:44;;;;;;;13.30;2.97;;;9.10;99.90;;;;;;5014192;28;20041;-59
2022/10/11 00:14:11;;;;;;;11.10;2.15;;;;;;;;;;5013154;28;20042;-58
2022/10/11 00:16:43;;;;;;;11.27;2.42;;;;;;;;;;5011864;28;20073;-59
2022/10/11 00:19:10;;;;;;;10.45;2.53;;;;;;;;;;5014261;28;20038;-59
2022/10/11 00:21:36;;;;;;;11.77;2.80;;;;;;;;;;4976870;28;20488;-59
2022/10/11 00:24:02;;;;;;;15.23;3.40;;;9.10;99.90;;;;;;5011306;28;20056;-59
2022/10/11 00:26:28;;;;;;;12.38;2.75;;;9.70;99.90;;;;;;5014507;28;20042;-59
2022/10/11 00:28:54;;;;;;;10.52;2.55;;;;;;;;;;4996343;28;20118;-60
2022/10/11 00:31:20;;;;;;;22.42;3.00;;;;;;;;;;5011521;28;20076;-59
2022/10/11 00:33:46;;;;;;;11.85;2.58;;;9.00;99.90;;;;;;5011050;28;20061;-59
2022/10/11 00:36:14;;;;;;;9.15;2.10;;;;;;;;;;5011571;28;20480;-59
2022/10/11 00:38:40;;;;;;;12.77;2.78;;;;;;;;;;5010966;28;20164;-60
2022/10/11 00:41:06;;;;;;;13.23;2.65;;;;;;;;;;5011642;28;20113;-60
2022/10/11 00:43:32;;;;;;;11.88;2.65;;;;;;;;;;5009989;28;20161;-59
2022/10/11 00:46:26;;;;;;;13.07;2.40;;;9.00;99.90;;;;;;5013970;28;20492;-59
2022/10/11 00:48:57;;;;;;;11.52;2.35;;;;;;;;;;5008312;28;20049;-59
2022/10/11 00:51:34;;;;;;;11.30;2.33;;;8.70;99.90;;;;;;4992753;28;20062;-59
2022/10/11 00:54:01;;;;;;;12.00;3.30;;;;;;;;;;5011256;28;20037;-59
2022/10/11 00:56:30;;;;;;;12.60;2.47;;;;;;;;;;5010712;28;20049;-59
2022/10/11 00:58:59;;;;;;;10.10;3.00;;;8.70;99.90;;;;;;5009170;28;20053;-59
2022/10/11 01:01:25;;;;;;;10.90;2.22;;;8.90;99.90;;;;;;5018876;28;20038;-59
2022/10/11 01:03:50;;;;;;;8.52;2.40;;;8.80;99.90;;;;;;5011718;28;20084;-59
2022/10/11 01:08:45;;;;;;;13.60;2.70;;;8.90;99.90;;;;;;5048903;28;20103;-64
2022/10/11 01:11:15;;;;;;;13.10;3.25;;;;;;;;;;5030293;28;20079;-63
2022/10/11 01:13:50;;;;;;;13.65;2.88;;;9.40;99.90;;;;;;5049085;28;20574;-64
2022/10/11 01:16:24;;;;;;;10.88;2.75;;;9.20;99.90;;;;;;5046460;28;20037;-63
2022/10/11 01:19:21;;;;;;;;;;;9.20;99.90;;;;;;5047884;28;20045;-64
2022/10/11 01:21:51;;;;;;;10.60;3.30;;;;;;;;;;5050023;28;20360;-64
2022/10/11 01:24:17;;;;;;;17.67;3.67;;;;;;;;;;5043084;28;20060;-64
2022/10/11 01:27:12;;;;;;;12.77;2.17;;;8.70;99.90;;;;;;5049905;28;20037;-64
2022/10/11 01:29:56;;;;;;;11.60;2.70;;;;;;;;;;5025246;28;20069;-62
2022/10/11 01:32:42;;;;;;;14.75;3.53;;;8.60;99.90;;;;;;5034410;28;20495;-64
2022/10/11 01:35:07;;;;;;;11.93;2.67;;;8.60;99.90;;;;;;5023260;28;20045;-64
2022/10/11 01:37:38;;;;;;;10.30;2.40;;;;;;;;;;5035058;28;20045;-64
2022/10/11 01:40:37;;;;;;;15.30;2.50;;;;;;;;;;5038837;28;20494;-64
2022/10/11 01:43:04;;;;;;;12.63;2.70;;;8.50;99.90;;;;;;4977296;28;20037;-63
2022/10/11 01:45:32;;;;;;;14.63;2.58;;;8.30;99.90;;;;;;5035826;28;20418;-64
2022/10/11 01:48:06;;;;;;;11.10;2.17;;;;;;;;;;5057729;22;20064;-64
2022/10/11 01:50:37;;;;;;;13.93;3.13;;;;;;;;;;5059984;28;20045;-64
2022/10/11 01:53:47;;;;;;;11.27;2.90;;;8.60;99.90;;;;;;5039533;28;20098;-64
2022/10/11 01:56:22;;;;;;;13.50;2.85;;;;;;;;;;5024937;28;20129;-64
2022/10/11 01:58:54;;;;;;;12.57;2.28;;;;;;;;;;5038731;28;20057;-64
2022/10/11 02:01:20;;;;;;;12.18;3.10;;;;;;;;;;5034886;28;20222;-64
2022/10/11 02:03:55;;;;;;;16.98;3.10;;;;;;;;;;5057893;28;20485;-63
2022/10/11 02:06:27;;;;;;;9.23;2.35;;;8.20;99.90;;;;;;5056676;28;20513;-65
2022/10/11 02:09:20;;;;;;;13.80;2.38;;;8.40;99.90;;;;;;5055524;28;20040;-64
2022/10/11 02:11:45;;;;;;;10.52;2.15;;;8.00;99.90;;;;;;5051769;28;20040;-64
2022/10/11 02:14:19;;;;;;;16.58;2.70;;;7.40;99.90;;;;;;5055762;28;20047;-64
2022/10/11 02:16:51;;;;;;;10.07;2.70;;;;;;;;;;5059190;28;20341;-63
2022/10/11 02:19:19;;;;;;;14.00;2.55;;;;;;;;;;5055563;28;20079;-63
2022/10/11 02:21:49;;;;;;;13.27;2.63;;;;;;;;;;5057937;28;20044;-64
2022/10/11 02:24:18;;;;;;;13.50;2.58;;;;;;;;;;5047301;28;20077;-63
2022/10/11 02:26:51;;;;;;;17.58;2.50;;;8.20;99.90;;;;;;5039224;28;20098;-63
2022/10/11 02:29:18;;;;;;;9.30;2.70;;;;;;;;;;5054666;28;20041;-64
2022/10/11 02:31:44;;;;;;;8.93;2.40;;;;;;;;;;5041555;28;20513;-63
2022/10/11 02:34:17;;;;;;;9.10;2.90;;;;;;;;;;5063115;28;20036;-63
2022/10/11 02:36:45;;;;;;;11.73;2.67;;;;;;;;;;5051877;28;20048;-63
2022/10/11 02:39:14;;;;;;;19.65;3.03;;;;;;;;;;5062929;28;20404;-63
2022/10/11 02:41:42;;;;;;;13.10;3.03;;;;;;;;;;5067697;28;20071;-63
2022/10/11 02:44:13;;;;;;;14.43;3.13;;;;;;;;;;5064985;28;20045;-62
2022/10/11 02:46:40;;;;;;;14.18;3.03;;;8.00;99.90;;;;;;5061067;28;20461;-64
2022/10/11 02:49:07;;;;;;;12.85;3.30;;;8.00;99.90;;;;;;5042534;28;20037;-64
2022/10/11 02:51:33;;;;;;;11.10;2.88;;;;;;;;;;5047499;28;20102;-64
2022/10/11 02:53:59;;;;;;;13.40;2.38;;;;;;;;;;5068649;28;20456;-64
2022/10/11 02:56:25;;;;;;;11.05;2.85;;;8.00;99.90;;;;;;5064436;28;20036;-64
2022/10/11 02:58:50;;;;;;;11.98;2.30;;;8.10;99.90;;;;;;5068210;28;20033;-63
2022/10/11 03:01:16;;;;;;;10.98;2.55;;;;;;;;;;5066539;28;20083;-64
2022/10/11 03:03:42;;;;;;;14.40;2.80;;;;;;;;;;5068763;28;20102;-64
2022/10/11 03:06:08;;;;;;;7.80;2.50;;;;;;;;;;5067299;28;20044;-64
2022/10/11 03:08:35;;;;;;;13.52;2.65;;;;;;;;;;5061307;28;20048;-63
2022/10/11 03:11:01;;;;;;;9.88;2.70;;;;;;;;;;5062959;28;20087;-64
2022/10/11 03:13:26;;;;;;;11.60;2.88;;;8.20;99.90;;;;;;5055537;28;20398;-64
2022/10/11 03:15:53;;;;;;;12.13;2.45;;;;;;;;;;5060477;28;20039;-64
2022/10/11 03:18:19;;;;;;;10.18;2.30;;;;;;;;;;5058818;28;20070;-63
2022/10/11 03:20:45;;;;;;;10.48;2.30;;;8.10;99.90;;;;;;5058005;28;20045;-63
2022/10/11 03:23:11;;;;;;;12.18;2.92;;;8.20;99.90;;;;;;5059564;28;20029;-64
2022/10/11 03:25:37;;;;;;;10.13;2.65;;;8.20;99.90;;;;;;5056300;28;20049;-64
2022/10/11 03:28:03;;;;;;;14.98;2.80;;;;;;;;;;5058446;28;20534;-63
2022/10/11 03:30:29;;;;;;;8.13;2.45;;;8.40;99.90;;;;;;5055121;28;20396;-63
2022/10/11 03:32:56;;;;;;;17.63;2.60;;;;;;;;;;5060679;28;20123;-63
2022/10/11 03:35:21;;;;;;;11.52;2.25;;;8.40;99.90;;;;;;5058810;28;20037;-64
2022/10/11 03:37:47;;;;;;;18.08;3.20;;;8.60;99.90;;;;;;5063295;28;20453;-64
2022/10/11 03:40:15;;;;;;;17.88;2.63;;;8.60;99.90;;;;;;5070286;28;20124;-64
2022/10/11 03:42:40;;;;;;;12.07;2.70;;;8.70;99.90;;;;;;5068322;28;20040;-64
2022/10/11 03:45:07;;;;;;;12.98;2.80;;;;;;;;;;5070311;28;20490;-64
2022/10/11 03:47:37;;;;;;;13.95;2.78;;;;;;;;;;5068031;28;20382;-64
2022/10/11 03:50:05;;;;;;;10.00;2.70;;;8.90;99.90;;;;;;5066503;28;20067;-64
2022/10/11 03:52:31;;;;;;;10.90;2.78;;;8.80;99.90;;;;;;5069354;28;20028;-64
2022/10/11 03:54:56;;;;;;;9.13;2.05;;;8.90;99.90;;;;;;5060956;28;20045;-64
2022/10/11 03:57:22;;;;;;;11.40;2.50;;;;;;;;;;5066865;28;20037;-63
2022/10/11 03:59:48;;;;;;;12.65;3.00;;;8.70;99.90;;;;;;5066822;28;20402;-64
2022/10/11 04:02:14;;;;;;;13.35;3.28;;;8.80;99.90;;;;;;5059848;28;20214;-64
2022/10/11 04:04:40;;;;;;;12.98;3.20;;;;;;;;;;5071147;28;20039;-64
2022/10/11 04:07:05;;;;;;;9.95;2.45;;;8.80;99.90;;;;;;5060568;28;20036;-64
2022/10/11 04:09:31;;;;;;;10.43;2.63;;;8.90;99.90;;;;;;5060506;28;20043;-63
2022/10/11 04:11:57;;;;;;;13.05;2.55;;;;;;;;;;5063284;28;20033;-64
2022/10/11 04:14:23;;;;;;;12.43;2.58;;;;;;;;;;5041198;28;20090;-64
2022/10/11 04:16:49;;;;;;;10.93;2.13;;;9.00;99.90;;;;;;5059255;28;20095;-63
2022/10/11 04:19:14;;;;;;;10.95;2.10;;;9.10;99.90;;;;;;5056007;28;20048;-64
2022/10/11 04:21:40;;;;;;;16.15;2.78;;;8.80;99.90;;;;;;5059950;28;20508;-63
2022/10/11 04:24:06;;;;;;;7.70;2.30;;;8.90;99.90;;;;;;5053233;28;20091;-63
2022/10/11 04:26:32;;;;;;;10.68;2.30;;;;;;;;;;5057113;28;20120;-63
2022/10/11 04:28:58;;;;;;;12.55;2.75;;;;;;;;;;5069847;28;20044;-62
2022/10/11 04:31:24;;;;;;;21.73;3.05;;;9.20;99.90;;;;;;5060140;28;20410;-62
2022/10/11 04:33:49;;;;;;;9.02;2.22;;;9.10;99.90;;;;;;5062522;28;20036;-63
2022/10/11 04:36:15;;;;;;;12.00;3.42;;;9.00;99.90;;;;;;5068036;28;20037;-62
2022/10/11 04:38:41;;;;;;;11.60;2.80;;;;;;;;;;5061394;28;20049;-63
2022/10/11 04:41:11;;;;;;;15.32;3.50;;;;;;;;;;5068617;28;20077;-63
2022/10/11 04:43:37;;;;;;;13.38;2.35;;;;;;;;;;5062116;28;20036;-63
2022/10/11 04:46:03;;;;;;;12.82;3.15;;;;;;;;;;5060980;28;20049;-62
2022/10/11 04:48:29;;;;;;;13.73;3.10;;;8.70;99.90;;;;;;5062683;28;20040;-62
2022/10/11 04:50:54;;;;;;;12.98;3.05;;;8.70;99.90;;;;;;5062643;28;20090;-63
2022/10/11 04:53:20;;;;;;;16.42;2.83;;;8.70;99.90;;;;;;5062829;28;20036;-63
2022/10/11 04:56:03;;;;;;;11.00;2.78;;;;;;;;;;5042763;28;20260;-64
2022/10/11 04:58:30;;;;;;;13.20;3.05;;;8.50;99.90;;;;;;5042631;28;20561;-63
2022/10/11 05:00:56;;;;;;;9.60;2.45;;;;;;;;;;5058936;28;20035;-63
2022/10/11 05:03:23;;;;;;;11.32;2.42;;;;;;;;;;5058498;28;20035;-63
2022/10/11 05:05:49;;;;;;;16.13;3.75;;;;;;;;;;5064901;28;20138;-63
2022/10/11 05:08:15;;;;;;;13.30;2.60;;;;;;;;;;5062736;28;20051;-63
2022/10/11 05:10:41;;;;;;;12.27;3.17;;;;;;;;;;5064726;28;20040;-62
2022/10/11 05:13:06;;;;;;;8.75;2.67;;;8.60;99.90;;;;;;5060193;28;20045;-62
2022/10/11 05:15:34;;;;;;;11.13;2.75;;;8.50;99.90;;;;;;5064080;28;20033;-63
2022/10/11 05:18:00;;;;;;;16.10;2.88;;;8.50;99.90;;;;;;5061324;28;20068;-63
2022/10/11 05:20:26;;;;;;;11.63;2.75;;;8.40;99.90;;;;;;5068312;28;20075;-62
2022/10/11 05:22:52;;;;;;;16.65;3.15;;;8.40;99.90;;;;;;5048771;28;20072;-63
2022/10/11 05:25:18;;;;;;;12.68;2.70;;;;;;;;;;5067598;28;20535;-63
2022/10/11 05:27:44;;;;;;;12.05;2.90;;;8.30;99.90;;;;;;5062814;28;20036;-62
2022/10/11 05:30:10;;;;;;;13.85;3.45;;;;;;;;;;5066009;28;20124;-62
2022/10/11 05:32:36;;;;;;;13.32;2.80;;;8.30;99.90;;;;;;5065693;28;20524;-63
2022/10/11 05:35:02;;;;;;;10.93;2.58;;;;;;;;;;5050607;28;20120;-63
2022/10/11 05:37:28;;;;;;;11.02;3.55;;;;;;;;;;5061180;28;20118;-63
2022/10/11 05:39:54;;;;;;;13.65;3.22;;;;;;;;;;5062596;28;20082;-63
2022/10/11 05:42:19;;;;;;;10.60;2.72;;;8.60;99.90;;;;;;5066346;28;20037;-63
2022/10/11 05:44:45;;;;;;;14.35;3.03;;;;;;;;;;5055352;28;20059;-62
2022/10/11 05:47:11;;;;;;;12.43;3.47;;;;;;;;;;5060839;28;20048;-62
2022/10/11 05:49:38;;;;;;;14.00;3.30;;;;;;;;;;5061929;28;20074;-63
2022/10/11 05:52:05;;;;;;;15.40;3.33;;;;;;;;;;5055753;28;20090;-63
2022/10/11 05:54:31;;;;;;;15.45;2.80;;;8.30;99.90;;;;;;5062889;28;20090;-62
2022/10/11 05:56:57;;;;;;;16.40;3.42;;;;;;;;;;5052525;28;20033;-62
2022/10/11 05:59:22;;;;;;;14.68;2.80;;;8.30;99.90;;;;;;5065755;28;20040;-62
2022/10/11 06:01:48;;;;;;;14.70;3.28;;;;;;;;;;5066989;28;20068;-62
2022/10/11 06:04:15;;;;;;;13.40;3.28;;;8.50;99.90;;;;;;5070585;28;20104;-62
2022/10/11 06:06:41;;;;;;;10.27;2.50;;;8.40;99.90;;;;;;5068847;28;20055;-62
2022/10/11 06:09:06;;;;;;;12.80;3.28;;;8.60;99.90;;;;;;5071176;28;20037;-62
2022/10/11 06:11:33;;;;;;;10.68;3.53;;;;;;;;;;5060673;28;20108;-62
2022/10/11 06:14:00;;;;;;;15.80;3.70;;;;;;;;;;5058029;28;20138;-63
2022/10/11 06:16:26;;;;;;;12.98;3.08;;;8.80;99.90;;;;;;5065477;28;20208;-62
2022/10/11 06:18:56;;;;;;;11.55;4.03;;;;;;;;;;5055120;28;20395;-62
2022/10/11 06:21:22;;;;;;;15.63;3.22;;;;;;;;;;5059925;28;20038;-62
2022/10/11 06:23:49;;;;;;;13.45;3.67;;;9.10;99.90;;;;;;5054869;28;20098;-62
2022/10/11 06:26:16;;;;;;;12.45;3.33;;;;;;;;;;5061349;28;20029;-63
2022/10/11 06:28:42;;;;;;;19.45;3.33;;;;;;;;;;5054937;28;20052;-63
2022/10/11 06:31:09;;;;;;;9.20;2.30;;;9.00;99.90;;;;;;5058010;28;20051;-62
2022/10/11 06:33:36;;;;;;;12.32;2.70;;;;;;;;;;5063571;28;20119;-63
2022/10/11 06:36:09;;;;;;;13.90;3.13;;;10.00;99.90;;;;;;5055147;28;20429;-63
2022/10/11 06:38:35;;;;;;;10.15;2.70;;;;;;;;;;5062224;28;20052;-62
2022/10/11 06:41:13;;;;;;;10.82;3.58;;;9.00;99.90;;;;;;5036220;28;20033;-64
2022/10/11 06:43:38;;;;;;;11.10;2.78;;;9.60;99.90;;;;;;5061358;28;20040;-62
2022/10/11 06:46:04;;;;;;;12.02;2.70;;;9.50;99.90;;;;;;5053470;28;20036;-62
2022/10/11 06:48:30;;;;;;;12.30;2.70;;;;;;;;;;5070557;28;20044;-62
2022/10/11 06:50:58;;;;;;;12.93;2.65;;;9.20;99.90;;;;;;5060286;28;20523;-62
2022/10/11 06:53:23;;;;;;;11.15;2.80;;;9.40;99.90;;;;;;5058555;28;20068;-62
2022/10/11 06:55:49;;;;;;;9.93;2.83;;;9.40;99.90;;;;;;5060073;28;20068;-63
2022/10/11 06:58:15;;;;;;;17.00;3.22;;;;;;;;;;5055047;28;20442;-62
2022/10/11 07:00:41;;;;;;;17.08;3.47;;;;;;;;;;5060542;28;20044;-63
2022/10/11 07:03:07;;;;;;;15.82;3.22;;;;;;;;;;5035714;28;20033;-63
2022/10/11 07:05:33;;;;;;;11.52;2.90;;;;;;;;;;5071921;22;20096;-59
2022/10/11 07:08:00;;;;;;;13.27;2.90;;;;;;;;;;5075853;28;20043;-58
2022/10/11 07:10:26;;;;;;;12.48;2.47;;;;;;;;;;5079748;28;20032;-59
2022/10/11 07:12:52;;;;;;;16.48;3.40;;;;;;;;;;5080547;28;20036;-59
2022/10/11 07:15:18;;;;;;;11.68;3.53;;;9.80;99.90;;;;;;5070335;28;20471;-59
2022/10/11 07:17:43;;;;;;;10.85;2.90;;;9.90;99.90;;;;;;5055677;28;20115;-59
2022/10/11 07:20:10;;;;;;;14.48;2.83;;;;;;;;;;5067392;28;20033;-59
2022/10/11 07:22:35;;;;;;;10.68;2.95;;;10.00;99.90;;;;;;5068571;28;20041;-59
2022/10/11 07:25:01;;;;;;;14.93;2.78;;;;;;;;;;5041846;28;20037;-58
2022/10/11 07:27:27;;;;;;;16.00;3.78;;;;;;;;;;5064466;28;20041;-58
2022/10/11 07:29:53;;;;;;;10.88;2.70;;;;;;;;;;5058314;28;20256;-59
2022/10/11 07:32:19;;;;;;;12.15;3.10;;;;;;;;;;5062940;28;20409;-59
2022/10/11 07:34:45;;;;;;;13.70;2.88;;;10.40;99.90;;;;;;5071843;28;20036;-59
2022/10/11 07:37:10;;;;;;;13.55;4.18;;;10.50;99.90;;;;;;5060649;28;20325;-58
2022/10/11 07:39:36;;;;;;;10.82;2.80;;;;;;;;;;5067625;28;20037;-58
2022/10/11 07:42:03;;;;;;;13.85;3.50;;;;;;;;;;5064277;28;20539;-59
2022/10/11 07:44:29;;;;;;;13.15;3.03;;;10.70;99.90;;;;;;5068969;28;20029;-58
2022/10/11 07:46:55;;;;;;;10.82;3.00;;;;;;;;;;5057049;28;20051;-57
2022/10/11 07:49:20;;;;;;;16.60;3.67;;;10.80;99.90;;;;;;5062153;28;20044;-59
2022/10/11 07:51:46;;;;;;;15.18;2.55;;;11.10;99.90;;;;;;5071495;28;20040;-59
2022/10/11 07:54:12;;;;;;;14.80;2.88;;;;;;;;;;5067198;28;20068;-58
2022/10/11 07:56:39;;;;;;;10.50;2.63;;;11.40;99.90;;;;;;5078337;28;20037;-59
2022/10/11 07:59:05;;;;;;;9.10;2.67;;;11.50;99.90;;;;;;5063842;28;20481;-59
2022/10/11 08:01:31;;;;;;;8.27;2.58;;;;;;;;;;5069614;28;20049;-59
2022/10/11 08:03:57;;;;;;;13.27;2.70;;;11.90;99.90;;;;;;5039360;28;20492;-59
2022/10/11 08:06:26;;;;;;;12.50;2.88;;;;;;;;;;5061329;28;20039;-59
2022/10/11 08:08:52;;;;;;;14.15;3.38;;;12.10;99.90;;;;;;5070469;28;20051;-59
2022/10/11 08:11:22;;;;;;;15.77;2.72;;;;;;;;;;5059698;28;20442;-59
2022/10/11 08:13:48;;;;;;;12.35;2.60;;;12.20;99.90;;;;;;5043591;28;20059;-60
2022/10/11 08:16:13;;;;;;;11.27;2.88;;;12.20;99.90;;;;;;5073563;28;20485;-59
2022/10/11 08:18:39;;;;;;;12.85;2.78;;;12.20;99.90;;;;;;5058230;28;20072;-59
2022/10/11 08:21:07;;;;;;;12.32;2.60;;;12.20;99.90;;;;;;5066734;28;20282;-60
2022/10/11 08:23:32;;;;;;;12.52;2.58;;;11.70;99.90;;;;;;5066285;28;20056;-59
2022/10/11 08:25:58;;;;;;;7.88;2.30;;;12.60;99.90;;;;;;5061218;28;20037;-60
2022/10/11 08:28:24;;;;;;;10.60;3.00;;;;;;;;;;5059422;28;20037;-60
2022/10/11 08:30:51;;;;;;;12.90;2.83;;;;;;;;;;5062262;28;20406;-60
2022/10/11 08:33:18;;;;;;;11.70;2.83;;;12.20;99.90;;;;;;5073939;28;20519;-62
2022/10/11 08:35:44;;;;;;;11.68;3.03;;;12.20;99.90;;;;;;5039936;28;20098;-60
2022/10/11 08:38:10;;;;;;;10.18;2.38;;;;;;;;;;5068599;28;20036;-60
2022/10/11 08:40:36;;;;;;;11.48;2.88;;;12.30;99.90;;;;;;5040091;28;20041;-60
2022/10/11 08:43:31;;;;;;;15.25;2.65;;;12.70;99.90;;;;;;5063886;28;20043;-60
2022/10/11 08:46:00;;;;;;;8.63;2.10;;;12.60;99.90;;;;;;5054341;28;20036;-60
2022/10/11 08:48:28;;;;;;;13.77;3.45;;;11.90;99.90;;;;;;5066845;28;20436;-60
2022/10/11 08:50:55;;;;;;;13.57;3.10;;;12.70;99.90;;;;;;5066368;28;20048;-60
2022/10/11 08:53:24;;;;;;;12.18;3.20;;;;;;;;;;5070557;28;20036;-60
2022/10/11 08:55:51;;;;;;;12.13;2.92;;;;;;;;;;5069786;28;20587;-60
2022/10/11 08:58:27;;;;;;;18.65;5.07;;;12.70;99.90;;;;;;5042937;28;20052;-60
2022/10/11 09:00:54;;;;;;;12.27;2.75;;;;;;;;;;5063292;28;20041;-60
2022/10/11 09:03:50;;;;;;;7.30;2.25;;;12.80;99.90;;;;;;5060248;28;20482;-60
2022/10/11 09:06:16;;;;;;;;;;;;;;;;;;5049599;28;20430;-60
2022/10/11 09:08:59;;;;;;;9.93;2.15;;;13.70;99.90;;;;;;5076720;28;19920;-60
2022/10/11 09:11:25;;;;;;;9.82;2.28;;;;;;;;;;5064765;28;20457;-60
2022/10/11 09:13:51;;;;;;;10.85;2.42;;;13.10;99.90;;;;;;5056696;28;20068;-60
2022/10/11 09:16:49;;;;;;;12.80;2.58;;;13.20;99.90;;;;;;5072669;28;20059;-60
2022/10/11 09:19:14;;;;;;;12.23;3.60;;;13.30;99.90;;;;;;5003125;28;20660;-60
2022/10/11 09:21:59;;;;;;;8.60;2.47;;;13.70;99.90;;;;;;5069081;28;20040;-60
2022/10/11 09:24:57;;;;;;;10.15;2.50;;;14.10;99.90;;;;;;5058961;28;20524;-60
2022/10/11 09:27:29;;;;;;;12.38;2.30;;;;;;;;;;5068337;28;20040;-60
2022/10/11 09:30:13;;;;;;;10.50;2.65;;;;;;;;;;5059820;28;20036;-60
2022/10/11 09:32:41;;;;;;;9.60;2.30;;;;;;;;;;5058623;28;20269;-60
2022/10/11 09:35:13;;;;;;;7.95;2.33;;;14.20;99.90;;;;;;5073162;28;20217;-60
2022/10/11 09:37:46;;;;;;;10.55;2.78;;;;;;;;;;5062311;28;20041;-60
2022/10/11 09:40:31;;;;;;;9.50;2.33;;;14.20;99.90;;;;;;5046059;28;20040;-60
2022/10/11 09:42:58;;;;;;;8.23;2.00;;;14.50;99.90;;;;;;5061099;28;20395;-60
2022/10/11 09:45:23;;;;;;;12.45;2.75;;;14.80;99.90;;;;;;5058639;28;20036;-60
2022/10/11 09:47:51;;;;;;;8.50;1.98;;;;;;;;;;5054685;28;20036;-60
2022/10/11 09:50:28;;;;;;;11.27;2.00;;;14.70;99.90;;;;;;5071355;28;20038;-59
2022/10/11 09:52:55;;;;;;;10.05;1.98;;;;;;;;;;5057950;28;20033;-59
2022/10/11 09:55:39;;;;;;;10.82;2.25;;;14.70;99.90;;;;;;5068287;28;20038;-58
2022/10/11 09:58:32;;;;;;;5.35;1.50;;;15.10;99.90;;;;;;5060895;28;20037;-58
2022/10/11 10:01:10;;;;;;;13.02;3.60;;;14.80;99.90;;;;;;5071743;28;20108;-59
2022/10/11 10:03:40;;;;;;;16.83;4.28;;;14.70;99.90;;;;;;5056250;28;20035;-60
2022/10/11 10:06:23;;;;;;;13.63;2.83;;;14.90;99.90;;;;;;5060317;28;20033;-60
2022/10/11 10:08:49;;;;;;;11.65;2.42;;;14.80;99.90;;;;;;5050882;28;20049;-59
2022/10/11 10:11:15;;;;;;;11.05;2.25;;;14.90;99.90;;;;;;5058283;28;20048;-60
2022/10/11 10:13:53;;;;;;;13.65;2.90;;;15.20;99.90;;;;;;5055823;28;20037;-60
2022/10/11 10:16:32;;;;;;;10.50;2.00;;;14.80;99.90;;;;;;5062714;28;20032;-60
2022/10/11 10:19:02;;;;;;;8.45;2.25;;;15.00;99.90;;;;;;5059588;28;20039;-60
2022/10/11 10:21:43;;;;;;;7.78;2.15;;;15.30;99.90;;;;;;5070730;28;20032;-59
2022/10/11 10:24:26;;;;;;;12.38;2.10;;;15.10;99.90;;;;;;5053126;28;20540;-60
2022/10/11 10:27:13;;;;;;;10.27;2.08;;;15.40;99.90;;;;;;5072839;28;20045;-59
2022/10/11 10:29:39;;;;;;;9.02;1.73;;;15.60;99.90;;;;;;5055237;28;20123;-60
2022/10/11 10:32:21;;;;;;;9.13;2.20;;;15.20;99.90;;;;;;5060386;28;20037;-59
2022/10/11 10:35:26;;;;;;;8.38;2.08;;;15.40;99.90;;;;;;5069328;28;20028;-59
2022/10/11 10:38:14;;;;;;;9.38;1.85;;;15.50;99.90;;;;;;5062066;28;20124;-59
2022/10/11 10:40:42;;;;;;;7.65;2.15;;;15.30;99.90;;;;;;5055357;28;20171;-59
2022/10/11 10:43:19;;;;;;;17.02;3.25;;;15.70;99.90;;;;;;5066052;28;20032;-59
2022/10/11 10:46:06;;;;;;;8.63;2.22;;;15.20;99.90;;;;;;5052086;28;20383;-59
2022/10/11 10:48:56;;;;;;;7.20;1.73;;;15.60;99.90;;;;;;5060272;28;20478;-58
2022/10/11 10:51:41;;;;;;;8.18;1.95;;;15.40;99.90;;;;;;5077773;28;20460;-59
2022/10/11 10:54:43;;;;;;;8.02;1.85;;;15.60;99.90;;;;;;5059759;28;20487;-60
2022/10/11 10:57:13;;;;;;;10.63;2.03;;;15.40;99.90;;;;;;5053694;28;20049;-60
2022/10/11 10:59:54;;;;;;;5.47;1.55;;;15.40;99.90;;;;;;5059093;28;20403;-60
2022/10/11 11:02:32;;;;;;;9.20;2.00;;;15.20;99.90;;;;;;5053835;28;20063;-61
2022/10/11 11:05:39;;;;;;;7.07;1.38;;;15.50;99.90;;;;;;5025792;28;20033;-58
2022/10/11 11:08:09;;;;;;;6.85;1.77;;;16.40;99.90;;;;;;5057269;28;20159;-59
2022/10/11 11:10:56;;;;;;;11.45;1.70;;;16.30;99.90;;;;;;5065081;28;20035;-58
2022/10/11 11:13:39;;;;;;;6.70;1.80;;;15.60;99.90;;;;;;5058575;28;20033;-59
2022/10/11 11:16:27;;;;;;;8.93;1.90;;;;;;;;;;5072372;28;20494;-58
2022/10/11 11:19:30;;;;;;;12.13;2.05;;;15.50;99.90;;;;;;5056283;28;20104;-59
2022/10/11 11:22:21;;;;;;;10.38;1.98;;;15.30;99.90;;;;;;5066792;28;20043;-58
2022/10/11 11:25:04;;;;;;;7.65;1.48;;;15.50;99.90;;;;;;5019367;28;20044;-59
2022/10/11 11:27:43;;;;;;;7.70;1.70;;;;;;;;;;5072902;28;20112;-60
2022/10/11 11:30:16;;;;;;;9.35;2.00;;;15.40;99.90;;;;;;5058262;28;20068;-59
2022/10/11 11:32:55;;;;;;;6.63;2.15;;;15.70;99.90;;;;;;5065617;28;20119;-58
2022/10/11 11:35:38;;;;;;;8.48;1.85;;;15.40;99.90;;;;;;5047470;28;20518;-59
2022/10/11 11:38:13;;;;;;;9.52;2.75;;;15.40;99.90;;;;;;5052287;28;20036;-59
2022/10/11 11:40:45;;;;;;;8.70;2.05;;;15.70;99.90;;;;;;5058199;28;20036;-59
2022/10/11 11:43:14;;;;;;;10.25;1.98;;;;;;;;;;5066823;28;20042;-59
2022/10/11 11:45:51;;;;;;;7.55;1.67;;;15.70;99.90;;;;;;5038612;28;20566;-59
2022/10/11 11:48:24;;;;;;;8.20;1.50;;;16.80;99.90;;;;;;5049974;28;20122;-60
2022/10/11 11:50:59;;;;;;;6.65;1.90;;;17.00;99.90;;;;;;5068076;28;20513;-60
2022/10/11 11:53:43;;;;;;;14.38;2.40;;;16.80;99.90;;;;;;5063674;28;20028;-59
2022/10/11 11:56:16;;;;;;;;;;;15.90;99.90;;;;;;5072271;28;20514;-59
2022/10/11 11:58:44;;;;;;;9.48;1.70;;;15.60;99.90;;;;;;5060744;28;19923;-59
2022/10/11 12:01:22;;;;;;;12.80;2.28;;;16.90;99.90;;;;;;5031814;28;20044;-59
2022/10/11 12:03:52;;;;;;;9.40;1.92;;;16.40;99.90;;;;;;5057592;28;20044;-59
2022/10/11 12:06:23;;;;;;;8.27;1.98;;;;;;;;;;5059910;28;20049;-59
2022/10/11 12:09:00;;;;;;;8.43;2.00;;;17.00;99.90;;;;;;5071224;28;20040;-59
2022/10/11 12:11:40;;;;;;;8.55;2.00;;;18.00;99.90;;;;;;5064151;28;20041;-59
2022/10/11 12:14:17;;;;;;;10.23;1.70;;;19.30;99.90;;;;;;5076735;28;20040;-59
2022/10/11 12:17:08;;;;;;;7.65;2.15;;;19.30;99.90;;;;;;5080826;28;20466;-59
2022/10/11 12:19:36;;;;;;;6.78;1.45;;;18.30;99.90;;;;;;5075625;28;20040;-59
2022/10/11 12:22:26;;;;;;;6.47;1.63;;;19.60;99.90;;;;;;5079996;28;20121;-59
2022/10/11 12:25:19;;;;;;;7.95;1.65;;;20.40;99.90;;;;;;5066402;28;20098;-60
2022/10/11 12:27:46;;;;;;;8.38;1.75;;;20.60;99.90;;;;;;5060259;28;20106;-59
2022/10/11 12:30:45;;;;;;;6.10;1.40;;;21.00;99.90;;;;;;5071036;28;20090;-60
2022/10/11 12:33:29;;;;;;;12.13;2.42;;;20.40;99.90;;;;;;5069908;28;20473;-59
2022/10/11 12:35:57;;;;;;;7.88;1.80;;;19.90;99.90;;;;;;5065015;28;20124;-60
2022/10/11 12:38:33;;;;;;;6.85;1.73;;;21.60;99.90;;;;;;5064668;28;20040;-60
2022/10/11 12:41:08;;;;;;;6.93;1.63;;;21.00;99.90;;;;;;5063790;28;20032;-60
2022/10/11 12:44:07;;;;;;;6.03;1.65;;;23.40;99.90;;;;;;5064116;28;20072;-61
2022/10/11 12:46:39;;;;;;;6.78;1.50;;;24.20;99.90;;;;;;5068977;28;20395;-60
2022/10/11 12:49:17;;;;;;;6.30;1.55;;;24.20;99.90;;;;;;5070273;28;20028;-60
2022/10/11 12:51:57;;;;;;;5.47;1.80;;;22.10;99.90;;;;;;5069538;28;20124;-60
2022/10/11 12:54:31;;;;;;;7.38;1.60;;;23.90;99.90;;;;;;5063012;28;20032;-60
2022/10/11 12:57:23;;;;;;;;;;;24.50;99.90;;;;;;5070279;28;20043;-61
2022/10/11 12:59:49;;;;;;;7.28;1.90;;;25.20;99.90;;;;;;5047785;28;19927;-61
2022/10/11 13:02:35;;;;;;;6.05;1.40;;;27.40;99.90;;;;;;5069733;28;20132;-61
2022/10/11 13:05:07;;;;;;;8.93;1.67;;;27.70;99.90;;;;;;5069179;28;20115;-61
2022/10/11 13:07:34;;;;;;;9.07;1.95;;;28.40;99.90;;;;;;5047272;22;20418;-62
2022/10/11 13:10:03;;;;;;;7.82;1.60;;;28.30;99.90;;;;;;5017103;28;20088;-64
2022/10/11 13:12:39;;;;;;;5.65;1.65;;;30.20;99.90;;;;;;5016432;28;20125;-63
2022/10/11 13:15:11;;;;;;;7.35;2.03;;;30.40;99.90;;;;;;5014872;28;20041;-62
2022/10/11 13:17:40;;;;;;;10.07;2.10;;;31.30;99.90;;;;;;5019625;28;20167;-62
2022/10/11 13:20:14;;;;;;;8.75;1.73;;;30.90;99.90;;;;;;5015347;28;20038;-63
2022/10/11 13:22:40;;;;;;;7.38;2.22;;;32.20;99.90;;;;;;5018240;28;20044;-63
2022/10/11 13:25:07;;;;;;;7.00;2.22;;;32.70;99.90;;;;;;5014728;28;20140;-62
2022/10/11 13:27:36;;;;;;;7.50;1.75;;;32.40;99.90;;;;;;5016314;28;20084;-62
2022/10/11 13:30:07;;;;;;;7.85;1.75;;;32.70;99.90;;;;;;5012639;28;20049;-63
2022/10/11 13:32:35;;;;;;;7.03;1.88;;;33.40;99.90;;;;;;5015917;28;20052;-63
2022/10/11 13:35:04;;;;;;;8.27;2.00;;;32.80;99.90;;;;;;5019747;28;20555;-63
2022/10/11 13:37:37;;;;;;;7.93;1.75;;;29.40;99.90;;;;;;5014405;28;20041;-63
2022/10/11 13:40:03;;;;;;;6.63;1.55;;;28.30;99.90;;;;;;5011824;28;20045;-63
2022/10/11 13:42:31;;;;;;;6.25;1.55;;;29.30;99.90;;;;;;5018035;28;20053;-62
2022/10/11 13:44:57;;;;;;;6.05;1.40;;;28.90;99.90;;;;;;5015631;28;20445;-62
2022/10/11 13:47:28;;;;;;;7.57;1.73;;;28.50;99.90;;;;;;5012139;28;20038;-62